createdAt,value
2017-05-14T00:00:11.846Z,100470
2017-05-14T00:01:11.920Z,100472
2017-05-14T00:02:11.480Z,100474
2017-05-14T00:03:11.978Z,100478
2017-05-14T00:04:12.356Z,100473
2017-05-14T00:05:11.590Z,100469
2017-05-14T00:06:11.602Z,100474
2017-05-14T00:07:12.183Z,100470
2017-05-14T00:08:11.708Z,100476
2017-05-14T00:09:12.322Z,100477
2017-05-14T00:10:12.720Z,100471
2017-05-14T00:11:12.520Z,100478
2017-05-14T00:12:12.525Z,100474
2017-05-14T00:13:12.061Z,100474
2017-05-14T00:14:12.655Z,100469
2017-05-14T00:15:12.706Z,100476
2017-05-14T00:16:13.039Z,100475
2017-05-14T00:17:12.329Z,100474
2017-05-14T00:18:12.918Z,100476
2017-05-14T00:19:12.482Z,100474
2017-05-14T00:20:13.015Z,100476
2017-05-14T00:21:12.544Z,100470
2017-05-14T00:22:13.370Z,100471
2017-05-14T00:23:12.628Z,100478
2017-05-14T00:24:13.150Z,100478
2017-05-14T00:25:12.629Z,100477
2017-05-14T00:26:13.157Z,100479
2017-05-14T00:27:12.703Z,100470
2017-05-14T00:28:13.048Z,100472
2017-05-14T00:29:12.825Z,100481
2017-05-14T00:30:13.341Z,100477
2017-05-14T00:31:12.851Z,100476
2017-05-14T00:32:13.466Z,100476
2017-05-14T00:33:13.044Z,100472
2017-05-14T00:34:13.864Z,100479
2017-05-14T00:35:13.124Z,100478
2017-05-14T00:36:13.723Z,100476
2017-05-14T00:37:13.230Z,100478
2017-05-14T00:38:13.302Z,100478
2017-05-14T00:39:13.362Z,100479
2017-05-14T00:40:14.203Z,100482
2017-05-14T00:41:13.933Z,100479
2017-05-14T00:42:13.460Z,100472
2017-05-14T00:43:13.968Z,100473
2017-05-14T00:44:13.526Z,100482
2017-05-14T00:45:14.109Z,100480
2017-05-14T00:46:14.497Z,100479
2017-05-14T00:47:13.746Z,100479
2017-05-14T00:48:13.710Z,100477
2017-05-14T00:49:14.316Z,100479
2017-05-14T00:50:13.793Z,100478
2017-05-14T00:51:14.312Z,100477
2017-05-14T00:52:14.675Z,100481
2017-05-14T00:53:14.438Z,100473
2017-05-14T00:54:13.976Z,100480
2017-05-14T00:55:14.053Z,100481
2017-05-14T00:56:14.643Z,100475
2017-05-14T00:57:14.214Z,100480
2017-05-14T00:58:15.086Z,100480
2017-05-14T00:59:14.813Z,100484
2017-05-14T01:00:14.919Z,100481
2017-05-14T01:01:14.430Z,100480
2017-05-14T01:02:14.972Z,100474
2017-05-14T01:03:15.060Z,100480
2017-05-14T01:04:14.802Z,100478
2017-05-14T01:05:14.583Z,100478
2017-05-14T01:06:14.704Z,100478
2017-05-14T01:07:14.727Z,100483
2017-05-14T01:08:15.343Z,100479
2017-05-14T01:09:14.753Z,100484
2017-05-14T01:10:15.036Z,100483
2017-05-14T01:11:14.852Z,100484
2017-05-14T01:12:14.902Z,100486
2017-05-14T01:13:15.519Z,100483
2017-05-14T01:14:15.607Z,100486
2017-05-14T01:15:15.654Z,100485
2017-05-14T01:16:15.453Z,100489
2017-05-14T01:17:15.193Z,100493
2017-05-14T01:18:15.291Z,100498
2017-05-14T01:19:15.864Z,100496
2017-05-14T01:20:15.397Z,100499
2017-05-14T01:21:15.987Z,100498
2017-05-14T01:22:16.229Z,100498
2017-05-14T01:23:15.553Z,100496
2017-05-14T01:24:15.577Z,100499
2017-05-14T01:25:16.171Z,100499
2017-05-14T01:26:15.696Z,100497
2017-05-14T01:27:16.192Z,100502
2017-05-14T01:28:15.922Z,100499
2017-05-14T01:29:16.198Z,100501
2017-05-14T01:30:15.737Z,100499
2017-05-14T01:31:15.828Z,100502
2017-05-14T01:32:16.459Z,100494
2017-05-14T01:33:15.982Z,100504
2017-05-14T01:34:16.803Z,100500
2017-05-14T01:35:16.505Z,100498
2017-05-14T01:36:16.537Z,100503
2017-05-14T01:37:16.129Z,100500
2017-05-14T01:38:16.729Z,100494
2017-05-14T01:39:16.783Z,100504
2017-05-14T01:40:17.100Z,100505
2017-05-14T01:41:16.307Z,100506
2017-05-14T01:42:16.365Z,100504
2017-05-14T01:43:16.393Z,100498
2017-05-14T01:44:17.001Z,100494
2017-05-14T01:45:16.575Z,100507
2017-05-14T01:46:17.316Z,100507
2017-05-14T01:47:16.575Z,100510
2017-05-14T01:48:17.181Z,100509
2017-05-14T01:49:16.719Z,100508
2017-05-14T01:50:17.299Z,100507
2017-05-14T01:51:17.362Z,100514
2017-05-14T01:52:17.710Z,100507
2017-05-14T01:53:17.448Z,100514
2017-05-14T01:54:17.538Z,100513
2017-05-14T01:55:17.550Z,100515
2017-05-14T01:56:17.648Z,100515
2017-05-14T01:57:17.111Z,100514
2017-05-14T01:58:17.521Z,100517
2017-05-14T01:59:17.806Z,100512
2017-05-14T02:00:17.333Z,100519
2017-05-14T02:01:17.911Z,100519
2017-05-14T02:02:17.507Z,100511
2017-05-14T02:03:17.572Z,100520
2017-05-14T02:04:17.837Z,100518
2017-05-14T02:05:17.598Z,100521
2017-05-14T02:06:17.622Z,100525
2017-05-14T02:07:17.680Z,100517
2017-05-14T02:08:17.723Z,100525
2017-05-14T02:09:17.764Z,100527
2017-05-14T02:10:18.695Z,100520
2017-05-14T02:11:17.923Z,100523
2017-05-14T02:12:18.507Z,100525
2017-05-14T02:13:18.576Z,100522
2017-05-14T02:14:18.613Z,100526
2017-05-14T02:15:18.127Z,100531
2017-05-14T02:16:19.068Z,100535
2017-05-14T02:17:18.820Z,100520
2017-05-14T02:18:18.340Z,100534
2017-05-14T02:19:18.327Z,100535
2017-05-14T02:20:18.894Z,100535
2017-05-14T02:21:18.390Z,100536
2017-05-14T02:22:18.750Z,100534
2017-05-14T02:23:18.413Z,100536
2017-05-14T02:24:18.970Z,100534
2017-05-14T02:25:19.028Z,100530
2017-05-14T02:26:18.570Z,100544
2017-05-14T02:27:19.104Z,100540
2017-05-14T02:28:19.381Z,100538
2017-05-14T02:29:18.658Z,100542
2017-05-14T02:30:19.183Z,100540
2017-05-14T02:31:18.725Z,100543
2017-05-14T02:32:18.786Z,100543
2017-05-14T02:33:18.799Z,100547
2017-05-14T02:34:19.682Z,100544
2017-05-14T02:35:19.392Z,100546
2017-05-14T02:36:18.865Z,100545
2017-05-14T02:37:19.440Z,100539
2017-05-14T02:38:18.925Z,100548
2017-05-14T02:39:19.062Z,100551
2017-05-14T02:40:19.374Z,100550
2017-05-14T02:41:19.218Z,100549
2017-05-14T02:42:19.792Z,100550
2017-05-14T02:43:19.830Z,100547
2017-05-14T02:44:19.433Z,100547
2017-05-14T02:45:20.023Z,100546
2017-05-14T02:46:19.872Z,100549
2017-05-14T02:47:20.070Z,100547
2017-05-14T02:48:20.116Z,100549
2017-05-14T02:49:20.167Z,100550
2017-05-14T02:50:19.650Z,100544
2017-05-14T02:51:20.310Z,100550
2017-05-14T02:52:20.098Z,100549
2017-05-14T02:53:20.463Z,100547
2017-05-14T02:54:19.984Z,100543
2017-05-14T02:55:19.983Z,100544
2017-05-14T02:56:20.580Z,100548
2017-05-14T02:57:20.110Z,100548
2017-05-14T02:58:20.481Z,100547
2017-05-14T02:59:20.224Z,100547
2017-05-14T03:00:20.824Z,100549
2017-05-14T03:01:20.329Z,100546
2017-05-14T03:02:20.379Z,100548
2017-05-14T03:03:21.044Z,100549
2017-05-14T03:04:20.838Z,100549
2017-05-14T03:05:21.144Z,100550
2017-05-14T03:06:20.601Z,100548
2017-05-14T03:07:20.728Z,100543
2017-05-14T03:08:21.342Z,100551
2017-05-14T03:09:20.871Z,100550
2017-05-14T03:10:21.199Z,100551
2017-05-14T03:11:21.505Z,100552
2017-05-14T03:12:21.016Z,100551
2017-05-14T03:13:21.647Z,100553
2017-05-14T03:14:21.775Z,100555
2017-05-14T03:15:21.230Z,100561
2017-05-14T03:16:22.158Z,100558
2017-05-14T03:17:21.331Z,100550
2017-05-14T03:18:21.348Z,100551
2017-05-14T03:19:21.398Z,100560
2017-05-14T03:20:21.362Z,100561
2017-05-14T03:21:21.972Z,100562
2017-05-14T03:22:22.266Z,100557
2017-05-14T03:23:21.531Z,100560
2017-05-14T03:24:21.534Z,100559
2017-05-14T03:25:21.605Z,100560
2017-05-14T03:26:22.157Z,100564
2017-05-14T03:27:22.773Z,100562
2017-05-14T03:28:22.595Z,100553
2017-05-14T03:29:21.848Z,100563
2017-05-14T03:30:21.865Z,100559
2017-05-14T03:31:22.407Z,100564
2017-05-14T03:32:21.947Z,100563
2017-05-14T03:33:22.576Z,100563
2017-05-14T03:34:22.921Z,100562
2017-05-14T03:35:22.678Z,100569
2017-05-14T03:36:22.716Z,100565
2017-05-14T03:37:22.193Z,100568
2017-05-14T03:38:22.348Z,100566
2017-05-14T03:39:22.354Z,100558
2017-05-14T03:40:23.174Z,100568
2017-05-14T03:41:22.961Z,100565
2017-05-14T03:42:22.411Z,100569
2017-05-14T03:43:23.007Z,100570
2017-05-14T03:44:22.579Z,100573
2017-05-14T03:45:23.134Z,100573
2017-05-14T03:46:23.499Z,100570
2017-05-14T03:47:22.698Z,100576
2017-05-14T03:48:22.770Z,100573
2017-05-14T03:49:23.277Z,100571
2017-05-14T03:50:22.756Z,100568
2017-05-14T03:51:23.404Z,100581
2017-05-14T03:52:23.699Z,100577
2017-05-14T03:53:23.504Z,100581
2017-05-14T03:54:23.581Z,100576
2017-05-14T03:55:23.042Z,100577
2017-05-14T03:56:23.611Z,100577
2017-05-14T03:57:23.098Z,100577
2017-05-14T03:58:23.448Z,100578
2017-05-14T03:59:23.231Z,100570
2017-05-14T04:00:23.890Z,100575
2017-05-14T04:01:23.391Z,100580
2017-05-14T04:02:23.431Z,100575
2017-05-14T04:03:23.986Z,100582
2017-05-14T04:04:23.772Z,100583
2017-05-14T04:05:24.084Z,100585
2017-05-14T04:06:24.108Z,100585
2017-05-14T04:07:23.652Z,100590
2017-05-14T04:08:23.669Z,100591
2017-05-14T04:09:24.287Z,100584
2017-05-14T04:10:24.523Z,100588
2017-05-14T04:11:24.255Z,100584
2017-05-14T04:12:23.813Z,100589
2017-05-14T04:13:24.454Z,100590
2017-05-14T04:14:24.513Z,100598
2017-05-14T04:15:24.593Z,100591
2017-05-14T04:16:24.416Z,100591
2017-05-14T04:17:24.157Z,100590
2017-05-14T04:18:24.176Z,100595
2017-05-14T04:19:24.803Z,100593
2017-05-14T04:20:24.315Z,100596
2017-05-14T04:21:24.333Z,100586
2017-05-14T04:22:25.718Z,100597
2017-05-14T04:23:24.504Z,100601
2017-05-14T04:24:25.114Z,100601
2017-05-14T04:25:25.211Z,100595
2017-05-14T04:26:25.254Z,100595
2017-05-14T04:27:25.620Z,100600
2017-05-14T04:28:24.892Z,100596
2017-05-14T04:29:24.912Z,100593
2017-05-14T04:30:25.563Z,100598
2017-05-14T04:31:25.590Z,100596
2017-05-14T04:32:25.632Z,100588
2017-05-14T04:33:25.443Z,100597
2017-05-14T04:34:25.715Z,100597
2017-05-14T04:35:25.786Z,100587
2017-05-14T04:36:25.872Z,100602
2017-05-14T04:37:25.925Z,100597
2017-05-14T04:38:25.987Z,100600
2017-05-14T04:39:26.356Z,100597
2017-05-14T04:40:25.514Z,100599
2017-05-14T04:41:26.065Z,100602
2017-05-14T04:42:26.154Z,100599
2017-05-14T04:43:26.297Z,100598
2017-05-14T04:44:26.366Z,100597
2017-05-14T04:45:26.167Z,100597
2017-05-14T04:46:25.890Z,100599
2017-05-14T04:47:26.414Z,100600
2017-05-14T04:48:25.969Z,100589
2017-05-14T04:49:26.115Z,100600
2017-05-14T04:50:26.081Z,100600
2017-05-14T04:51:26.983Z,100592
2017-05-14T04:52:26.237Z,100596
2017-05-14T04:53:26.309Z,100599
2017-05-14T04:54:26.461Z,100592
2017-05-14T04:55:27.049Z,100599
2017-05-14T04:56:26.577Z,100596
2017-05-14T04:57:27.362Z,100602
2017-05-14T04:58:27.145Z,100595
2017-05-14T04:59:27.188Z,100602
2017-05-14T05:00:26.703Z,100605
2017-05-14T05:01:26.768Z,100604
2017-05-14T05:02:27.380Z,100606
2017-05-14T05:03:27.145Z,100606
2017-05-14T05:04:27.508Z,100607
2017-05-14T05:05:27.077Z,100606
2017-05-14T05:06:27.591Z,100606
2017-05-14T05:07:27.162Z,100600
2017-05-14T05:08:27.722Z,100609
2017-05-14T05:09:27.498Z,100612
2017-05-14T05:10:27.815Z,100608
2017-05-14T05:11:27.334Z,100611
2017-05-14T05:12:27.929Z,100613
2017-05-14T05:13:27.492Z,100616
2017-05-14T05:14:28.097Z,100617
2017-05-14T05:15:27.871Z,100616
2017-05-14T05:16:28.250Z,100605
2017-05-14T05:17:27.784Z,100612
2017-05-14T05:18:27.863Z,100614
2017-05-14T05:19:27.823Z,100618
2017-05-14T05:20:28.494Z,100619
2017-05-14T05:21:28.297Z,100621
2017-05-14T05:22:28.625Z,100620
2017-05-14T05:23:28.692Z,100621
2017-05-14T05:24:28.203Z,100624
2017-05-14T05:25:28.854Z,100621
2017-05-14T05:26:28.379Z,100615
2017-05-14T05:27:29.286Z,100619
2017-05-14T05:28:28.982Z,100612
2017-05-14T05:29:28.980Z,100615
2017-05-14T05:30:28.995Z,100615
2017-05-14T05:31:28.513Z,100618
2017-05-14T05:32:29.121Z,100611
2017-05-14T05:33:29.488Z,100623
2017-05-14T05:34:29.189Z,100620
2017-05-14T05:35:28.682Z,100614
2017-05-14T05:36:29.258Z,100622
2017-05-14T05:37:28.761Z,100622
2017-05-14T05:38:28.758Z,100617
2017-05-14T05:39:29.004Z,100623
2017-05-14T05:40:29.339Z,100626
2017-05-14T05:41:28.820Z,100621
2017-05-14T05:42:28.959Z,100629
2017-05-14T05:43:29.547Z,100633
2017-05-14T05:44:29.544Z,100630
2017-05-14T05:45:29.904Z,100639
2017-05-14T05:46:29.576Z,100644
2017-05-14T05:47:29.722Z,100645
2017-05-14T05:48:29.774Z,100646
2017-05-14T05:49:29.851Z,100639
2017-05-14T05:50:29.908Z,100643
2017-05-14T05:51:29.705Z,100649
2017-05-14T05:52:30.020Z,100636
2017-05-14T05:53:29.532Z,100648
2017-05-14T05:54:30.160Z,100647
2017-05-14T05:55:29.764Z,100644
2017-05-14T05:56:30.082Z,100642
2017-05-14T05:57:29.829Z,100642
2017-05-14T05:58:29.837Z,100644
2017-05-14T05:59:30.438Z,100645
2017-05-14T06:00:30.483Z,100643
2017-05-14T06:01:30.529Z,100637
2017-05-14T06:02:30.855Z,100647
2017-05-14T06:03:30.117Z,100639
2017-05-14T06:04:30.201Z,100648
2017-05-14T06:05:30.292Z,100636
2017-05-14T06:06:30.295Z,100646
2017-05-14T06:07:30.252Z,100643
2017-05-14T06:08:30.558Z,100643
2017-05-14T06:09:30.955Z,100636
2017-05-14T06:10:31.002Z,100641
2017-05-14T06:11:30.569Z,100639
2017-05-14T06:12:30.576Z,100638
2017-05-14T06:13:30.696Z,100640
2017-05-14T06:14:30.963Z,100640
2017-05-14T06:15:31.219Z,100641
2017-05-14T06:16:30.825Z,100646
2017-05-14T06:17:31.437Z,100648
2017-05-14T06:18:31.479Z,100654
2017-05-14T06:19:31.477Z,100653
2017-05-14T06:20:31.754Z,100660
2017-05-14T06:21:31.048Z,100659
2017-05-14T06:22:31.049Z,100657
2017-05-14T06:23:31.588Z,100659
2017-05-14T06:24:31.206Z,100663
2017-05-14T06:25:31.168Z,100665
2017-05-14T06:26:31.543Z,100662
2017-05-14T06:27:31.253Z,100662
2017-05-14T06:28:31.845Z,100662
2017-05-14T06:29:31.352Z,100665
2017-05-14T06:30:31.914Z,100663
2017-05-14T06:31:32.052Z,100657
2017-05-14T06:32:31.865Z,100665
2017-05-14T06:33:31.627Z,100667
2017-05-14T06:34:32.221Z,100666
2017-05-14T06:35:32.226Z,100664
2017-05-14T06:36:32.261Z,100660
2017-05-14T06:37:31.855Z,100668
2017-05-14T06:38:32.178Z,100660
2017-05-14T06:39:31.992Z,100670
2017-05-14T06:40:31.993Z,100673
2017-05-14T06:41:32.072Z,100669
2017-05-14T06:42:32.109Z,100671
2017-05-14T06:43:32.191Z,100670
2017-05-14T06:44:33.134Z,100669
2017-05-14T06:45:32.842Z,100673
2017-05-14T06:46:32.387Z,100673
2017-05-14T06:47:32.454Z,100675
2017-05-14T06:48:32.520Z,100674
2017-05-14T06:49:33.126Z,100674
2017-05-14T06:50:32.926Z,100678
2017-05-14T06:51:32.759Z,100678
2017-05-14T06:52:33.375Z,100683
2017-05-14T06:53:32.916Z,100677
2017-05-14T06:54:33.478Z,100687
2017-05-14T06:55:33.566Z,100688
2017-05-14T06:56:33.869Z,100686
2017-05-14T06:57:33.618Z,100688
2017-05-14T06:58:33.099Z,100691
2017-05-14T06:59:33.771Z,100693
2017-05-14T07:00:33.283Z,100692
2017-05-14T07:01:33.913Z,100694
2017-05-14T07:02:34.254Z,100688
2017-05-14T07:03:34.007Z,100695
2017-05-14T07:04:34.128Z,100699
2017-05-14T07:05:34.189Z,100703
2017-05-14T07:06:34.323Z,100698
2017-05-14T07:07:34.100Z,100700
2017-05-14T07:08:34.395Z,100701
2017-05-14T07:09:33.995Z,100705
2017-05-14T07:10:34.031Z,100704
2017-05-14T07:11:34.605Z,100703
2017-05-14T07:12:34.692Z,100703
2017-05-14T07:13:34.543Z,100707
2017-05-14T07:14:34.290Z,100707
2017-05-14T07:15:34.393Z,100709
2017-05-14T07:16:34.931Z,100711
2017-05-14T07:17:35.061Z,100709
2017-05-14T07:18:34.554Z,100704
2017-05-14T07:19:34.965Z,100713
2017-05-14T07:20:35.262Z,100712
2017-05-14T07:21:34.784Z,100710
2017-05-14T07:22:35.379Z,100704
2017-05-14T07:23:35.439Z,100708
2017-05-14T07:24:35.452Z,100706
2017-05-14T07:25:35.813Z,100705
2017-05-14T07:26:35.012Z,100709
2017-05-14T07:27:35.616Z,100708
2017-05-14T07:28:35.681Z,100699
2017-05-14T07:29:35.764Z,100710
2017-05-14T07:30:35.284Z,100706
2017-05-14T07:31:36.126Z,100711
2017-05-14T07:32:35.881Z,100707
2017-05-14T07:33:35.360Z,100710
2017-05-14T07:34:35.964Z,100709
2017-05-14T07:35:36.010Z,100710
2017-05-14T07:36:36.068Z,100706
2017-05-14T07:37:35.858Z,100715
2017-05-14T07:38:36.120Z,100715
2017-05-14T07:39:36.187Z,100713
2017-05-14T07:40:35.725Z,100712
2017-05-14T07:41:35.713Z,100713
2017-05-14T07:42:36.285Z,100715
2017-05-14T07:43:36.626Z,100710
2017-05-14T07:44:36.465Z,100712
2017-05-14T07:45:36.492Z,100716
2017-05-14T07:46:36.502Z,100715
2017-05-14T07:47:36.586Z,100722
2017-05-14T07:48:36.628Z,100719
2017-05-14T07:49:36.918Z,100718
2017-05-14T07:50:36.684Z,100715
2017-05-14T07:51:36.188Z,100716
2017-05-14T07:52:36.772Z,100721
2017-05-14T07:53:36.331Z,100722
2017-05-14T07:54:36.352Z,100721
2017-05-14T07:55:37.169Z,100717
2017-05-14T07:56:36.442Z,100721
2017-05-14T07:57:36.453Z,100720
2017-05-14T07:58:36.989Z,100721
2017-05-14T07:59:36.536Z,100722
2017-05-14T08:00:36.560Z,100719
2017-05-14T08:01:37.456Z,100723
2017-05-14T08:02:36.674Z,100722
2017-05-14T08:03:37.312Z,100728
2017-05-14T08:04:37.382Z,100725
2017-05-14T08:05:36.890Z,100726
2017-05-14T08:06:37.521Z,100723
2017-05-14T08:07:37.332Z,100719
2017-05-14T08:08:37.175Z,100724
2017-05-14T08:09:37.659Z,100722
2017-05-14T08:10:37.730Z,100725
2017-05-14T08:11:37.219Z,100728
2017-05-14T08:12:37.202Z,100724
2017-05-14T08:13:38.074Z,100724
2017-05-14T08:14:37.793Z,100719
2017-05-14T08:15:37.919Z,100721
2017-05-14T08:16:37.897Z,100723
2017-05-14T08:17:38.007Z,100729
2017-05-14T08:18:37.514Z,100723
2017-05-14T08:19:38.414Z,100728
2017-05-14T08:20:37.621Z,100732
2017-05-14T08:21:37.674Z,100734
2017-05-14T08:22:37.760Z,100735
2017-05-14T08:23:37.810Z,100733
2017-05-14T08:24:38.418Z,100732
2017-05-14T08:25:38.234Z,100723
2017-05-14T08:26:37.982Z,100734
2017-05-14T08:27:38.625Z,100735
2017-05-14T08:28:38.642Z,100728
2017-05-14T08:29:38.642Z,100733
2017-05-14T08:30:38.149Z,100734
2017-05-14T08:31:38.957Z,100734
2017-05-14T08:32:38.694Z,100730
2017-05-14T08:33:38.206Z,100730
2017-05-14T08:34:38.792Z,100730
2017-05-14T08:35:38.354Z,100732
2017-05-14T08:36:38.946Z,100733
2017-05-14T08:37:39.368Z,100732
2017-05-14T08:38:38.524Z,100732
2017-05-14T08:39:38.547Z,100728
2017-05-14T08:40:38.530Z,100724
2017-05-14T08:41:38.617Z,100731
2017-05-14T08:42:39.151Z,100732
2017-05-14T08:43:38.897Z,100730
2017-05-14T08:44:39.138Z,100730
2017-05-14T08:45:38.668Z,100723
2017-05-14T08:46:39.357Z,100732
2017-05-14T08:47:39.320Z,100739
2017-05-14T08:48:38.921Z,100735
2017-05-14T08:49:39.220Z,100738
2017-05-14T08:50:39.675Z,100738
2017-05-14T08:51:39.066Z,100740
2017-05-14T08:52:39.040Z,100739
2017-05-14T08:53:39.105Z,100742
2017-05-14T08:54:39.091Z,100741
2017-05-14T08:55:39.432Z,100741
2017-05-14T08:56:39.251Z,100739
2017-05-14T08:57:39.818Z,100745
2017-05-14T08:58:39.924Z,100748
2017-05-14T08:59:39.991Z,100746
2017-05-14T09:00:40.025Z,100754
2017-05-14T09:01:40.320Z,100757
2017-05-14T09:02:39.535Z,100762
2017-05-14T09:03:40.164Z,100762
2017-05-14T09:04:40.123Z,100763
2017-05-14T09:05:39.694Z,100763
2017-05-14T09:06:39.655Z,100760
2017-05-14T09:07:40.497Z,100764
2017-05-14T09:08:40.279Z,100763
2017-05-14T09:09:39.783Z,100766
2017-05-14T09:10:39.803Z,100766
2017-05-14T09:11:40.420Z,100771
2017-05-14T09:12:40.443Z,100766
2017-05-14T09:13:40.832Z,100761
2017-05-14T09:14:40.123Z,100766
2017-05-14T09:15:40.701Z,100769
2017-05-14T09:16:40.188Z,100770
2017-05-14T09:17:40.730Z,100768
2017-05-14T09:18:40.751Z,100770
2017-05-14T09:19:40.482Z,100766
2017-05-14T09:20:40.769Z,100766
2017-05-14T09:21:40.340Z,100768
2017-05-14T09:22:40.864Z,100774
2017-05-14T09:23:40.877Z,100772
2017-05-14T09:24:40.414Z,100770
2017-05-14T09:25:41.288Z,100771
2017-05-14T09:26:40.497Z,100775
2017-05-14T09:27:40.543Z,100777
2017-05-14T09:28:40.602Z,100768
2017-05-14T09:29:41.192Z,100775
2017-05-14T09:30:40.738Z,100774
2017-05-14T09:31:41.582Z,100775
2017-05-14T09:32:41.262Z,100782
2017-05-14T09:33:40.839Z,100779
2017-05-14T09:34:40.810Z,100775
2017-05-14T09:35:41.376Z,100781
2017-05-14T09:36:41.423Z,100774
2017-05-14T09:37:41.291Z,100779
2017-05-14T09:38:41.004Z,100769
2017-05-14T09:39:40.999Z,100783
2017-05-14T09:40:41.557Z,100782
2017-05-14T09:41:41.052Z,100781
2017-05-14T09:42:41.119Z,100787
2017-05-14T09:43:41.400Z,100787
2017-05-14T09:44:41.682Z,100790
2017-05-14T09:45:41.781Z,100787
2017-05-14T09:46:41.240Z,100790
2017-05-14T09:47:41.913Z,100785
2017-05-14T09:48:41.409Z,100788
2017-05-14T09:49:42.205Z,100794
2017-05-14T09:50:41.983Z,100793
2017-05-14T09:51:41.531Z,100793
2017-05-14T09:52:41.569Z,100794
2017-05-14T09:53:42.180Z,100797
2017-05-14T09:54:41.739Z,100796
2017-05-14T09:55:42.033Z,100790
2017-05-14T09:56:41.862Z,100799
2017-05-14T09:57:41.901Z,100790
2017-05-14T09:58:42.514Z,100800
2017-05-14T09:59:42.051Z,100787
2017-05-14T10:00:42.080Z,100797
2017-05-14T10:01:42.944Z,100793
2017-05-14T10:02:42.196Z,100805
2017-05-14T10:03:42.206Z,100802
2017-05-14T10:04:42.198Z,100797
2017-05-14T10:05:42.227Z,100798
2017-05-14T10:06:42.773Z,100799
2017-05-14T10:07:43.150Z,100795
2017-05-14T10:08:42.946Z,100804
2017-05-14T10:09:42.456Z,100801
2017-05-14T10:10:42.460Z,100800
2017-05-14T10:11:42.980Z,100795
2017-05-14T10:12:42.528Z,100802
2017-05-14T10:13:42.842Z,100794
2017-05-14T10:14:43.192Z,100806
2017-05-14T10:15:42.729Z,100802
2017-05-14T10:16:42.706Z,100800
2017-05-14T10:17:42.741Z,100800
2017-05-14T10:18:42.841Z,100792
2017-05-14T10:19:43.759Z,100796
2017-05-14T10:20:43.500Z,100800
2017-05-14T10:21:43.025Z,100795
2017-05-14T10:22:43.536Z,100797
2017-05-14T10:23:43.626Z,100796
2017-05-14T10:24:43.185Z,100792
2017-05-14T10:25:44.116Z,100794
2017-05-14T10:26:43.340Z,100788
2017-05-14T10:27:43.356Z,100782
2017-05-14T10:28:43.407Z,100788
2017-05-14T10:29:43.995Z,100786
2017-05-14T10:30:43.964Z,100792
2017-05-14T10:31:43.828Z,100784
2017-05-14T10:32:43.643Z,100780
2017-05-14T10:33:43.673Z,100780
2017-05-14T10:34:44.227Z,100784
2017-05-14T10:35:44.256Z,100784
2017-05-14T10:36:43.780Z,100791
2017-05-14T10:37:44.119Z,100785
2017-05-14T10:38:43.902Z,100788
2017-05-14T10:39:43.912Z,100787
2017-05-14T10:40:43.976Z,100789
2017-05-14T10:41:44.473Z,100783
2017-05-14T10:42:44.546Z,100787
2017-05-14T10:43:44.321Z,100781
2017-05-14T10:44:44.099Z,100777
2017-05-14T10:45:44.140Z,100769
2017-05-14T10:46:44.775Z,100784
2017-05-14T10:47:44.844Z,100783
2017-05-14T10:48:44.893Z,100783
2017-05-14T10:49:44.710Z,100782
2017-05-14T10:50:44.528Z,100780
2017-05-14T10:51:44.587Z,100776
2017-05-14T10:52:45.096Z,100775
2017-05-14T10:53:44.662Z,100780
2017-05-14T10:54:44.763Z,100780
2017-05-14T10:55:45.603Z,100782
2017-05-14T10:56:44.879Z,100780
2017-05-14T10:57:45.425Z,100784
2017-05-14T10:58:45.560Z,100777
2017-05-14T10:59:45.064Z,100780
2017-05-14T11:00:45.660Z,100783
2017-05-14T11:01:46.060Z,100785
2017-05-14T11:02:45.257Z,100780
2017-05-14T11:03:45.904Z,100778
2017-05-14T11:04:45.915Z,100787
2017-05-14T11:05:45.999Z,100786
2017-05-14T11:06:45.510Z,100783
2017-05-14T11:07:46.439Z,100799
2017-05-14T11:08:46.252Z,100789
2017-05-14T11:09:45.809Z,100796
2017-05-14T11:10:46.368Z,100799
2017-05-14T11:11:46.378Z,100785
2017-05-14T11:12:45.877Z,100794
2017-05-14T11:13:46.753Z,100787
2017-05-14T11:14:46.032Z,100792
2017-05-14T11:15:46.050Z,100801
2017-05-14T11:16:46.552Z,100799
2017-05-14T11:17:46.633Z,100797
2017-05-14T11:18:46.698Z,100799
2017-05-14T11:19:47.061Z,100801
2017-05-14T11:20:46.826Z,100797
2017-05-14T11:21:46.917Z,100804
2017-05-14T11:22:47.017Z,100806
2017-05-14T11:23:46.580Z,100802
2017-05-14T11:24:47.151Z,100805
2017-05-14T11:25:46.944Z,100803
2017-05-14T11:26:46.669Z,100798
2017-05-14T11:27:47.252Z,100802
2017-05-14T11:28:47.304Z,100802
2017-05-14T11:29:47.349Z,100796
2017-05-14T11:30:46.884Z,100801
2017-05-14T11:31:47.199Z,100789
2017-05-14T11:32:46.930Z,100786
2017-05-14T11:33:46.967Z,100790
2017-05-14T11:34:47.024Z,100793
2017-05-14T11:35:47.109Z,100790
2017-05-14T11:36:47.690Z,100793
2017-05-14T11:37:47.504Z,100793
2017-05-14T11:38:47.267Z,100794
2017-05-14T11:39:47.277Z,100783
2017-05-14T11:40:47.346Z,100790
2017-05-14T11:41:47.918Z,100791
2017-05-14T11:42:48.031Z,100790
2017-05-14T11:43:47.780Z,100783
2017-05-14T11:44:48.127Z,100783
2017-05-14T11:45:48.258Z,100791
2017-05-14T11:46:48.278Z,100794
2017-05-14T11:47:47.745Z,100793
2017-05-14T11:48:47.782Z,100793
2017-05-14T11:49:48.677Z,100784
2017-05-14T11:50:47.900Z,100793
2017-05-14T11:51:47.936Z,100795
2017-05-14T11:52:48.498Z,100788
2017-05-14T11:53:47.995Z,100795
2017-05-14T11:54:48.587Z,100798
2017-05-14T11:55:49.001Z,100796
2017-05-14T11:56:48.725Z,100792
2017-05-14T11:57:48.785Z,100791
2017-05-14T11:58:48.340Z,100795
2017-05-14T11:59:49.018Z,100795
2017-05-14T12:00:49.114Z,100797
2017-05-14T12:01:49.444Z,100784
2017-05-14T12:02:48.624Z,100793
2017-05-14T12:03:49.142Z,100796
2017-05-14T12:04:48.643Z,100797
2017-05-14T12:05:48.718Z,100783
2017-05-14T12:06:49.362Z,100792
2017-05-14T12:07:49.631Z,100792
2017-05-14T12:08:48.934Z,100786
2017-05-14T12:09:49.440Z,100788
2017-05-14T12:10:49.516Z,100789
2017-05-14T12:11:49.571Z,100782
2017-05-14T12:12:49.091Z,100793
2017-05-14T12:13:49.359Z,100795
2017-05-14T12:14:49.766Z,100788
2017-05-14T12:15:49.822Z,100799
2017-05-14T12:16:49.336Z,100794
2017-05-14T12:17:49.335Z,100799
2017-05-14T12:18:49.414Z,100798
2017-05-14T12:19:49.688Z,100796
2017-05-14T12:20:49.461Z,100785
2017-05-14T12:21:50.083Z,100802
2017-05-14T12:22:50.097Z,100803
2017-05-14T12:23:50.202Z,100804
2017-05-14T12:24:49.629Z,100807
2017-05-14T12:25:50.441Z,100801
2017-05-14T12:26:49.729Z,100802
2017-05-14T12:27:50.263Z,100797
2017-05-14T12:28:49.860Z,100793